sensor_id;sensor_type;location;lat;lon;timestamp;P1;durP1;ratioP1;P2;durP2;ratioP2
13230;SDS011;6681;53.254;10.398;2023-06-04T00:00:25;1.00;;;0.90;;
13230;SDS011;6681;53.254;10.398;2023-06-04T00:02:50;1.40;;;1.27;;
13230;SDS011;6681;53.254;10.398;2023-06-04T00:05:19;0.87;;;0.87;;
13230;SDS011;6681;53.254;10.398;2023-06-04T00:07:44;3.27;;;1.13;;
13230;SDS011;6681;53.254;10.398;2023-06-04T00:10:10;0.70;;;0.70;;
13230;SDS011;6681;53.254;10.398;2023-06-04T00:12:36;1.40;;;1.30;;
13230;SDS011;6681;53.254;10.398;2023-06-04T00:15:02;0.70;;;0.70;;
13230;SDS011;6681;53.254;10.398;2023-06-04T00:17:27;1.47;;;1.37;;
13230;SDS011;6681;53.254;10.398;2023-06-04T00:19:53;1.60;;;1.37;;
13230;SDS011;6681;53.254;10.398;2023-06-04T00:22:19;2.37;;;1.23;;
13230;SDS011;6681;53.254;10.398;2023-06-04T00:24:44;1.70;;;1.17;;
13230;SDS011;6681;53.254;10.398;2023-06-04T00:27:10;1.43;;;1.23;;
13230;SDS011;6681;53.254;10.398;2023-06-04T00:29:36;1.60;;;1.50;;
13230;SDS011;6681;53.254;10.398;2023-06-04T00:32:02;1.83;;;1.70;;
13230;SDS011;6681;53.254;10.398;2023-06-04T00:34:28;1.57;;;1.47;;
13230;SDS011;6681;53.254;10.398;2023-06-04T00:36:53;1.93;;;1.83;;
13230;SDS011;6681;53.254;10.398;2023-06-04T00:39:19;4.27;;;2.40;;
13230;SDS011;6681;53.254;10.398;2023-06-04T00:41:46;3.67;;;3.37;;
13230;SDS011;6681;53.254;10.398;2023-06-04T00:44:12;2.97;;;2.67;;
13230;SDS011;6681;53.254;10.398;2023-06-04T00:46:37;2.83;;;2.10;;
13230;SDS011;6681;53.254;10.398;2023-06-04T00:49:04;4.83;;;2.87;;
13230;SDS011;6681;53.254;10.398;2023-06-04T00:51:31;2.80;;;2.60;;
13230;SDS011;6681;53.254;10.398;2023-06-04T00:53:58;2.13;;;1.90;;
13230;SDS011;6681;53.254;10.398;2023-06-04T00:56:24;2.30;;;2.10;;
13230;SDS011;6681;53.254;10.398;2023-06-04T00:58:49;5.07;;;2.13;;
13230;SDS011;6681;53.254;10.398;2023-06-04T01:01:34;2.63;;;2.00;;
13230;SDS011;6681;53.254;10.398;2023-06-04T01:04:09;4.07;;;2.97;;
13230;SDS011;6681;53.254;10.398;2023-06-04T01:06:43;3.20;;;1.67;;
13230;SDS011;6681;53.254;10.398;2023-06-04T01:09:10;2.37;;;1.63;;
13230;SDS011;6681;53.254;10.398;2023-06-04T01:11:37;3.33;;;1.63;;
13230;SDS011;6681;53.254;10.398;2023-06-04T01:14:03;2.13;;;1.93;;
13230;SDS011;6681;53.254;10.398;2023-06-04T01:16:35;3.17;;;1.40;;
13230;SDS011;6681;53.254;10.398;2023-06-04T01:22:10;0.90;;;0.90;;
13230;SDS011;6681;53.254;10.398;2023-06-04T01:24:45;5.80;;;1.07;;
13230;SDS011;6681;53.254;10.398;2023-06-04T01:27:21;2.10;;;1.53;;
13230;SDS011;6681;53.254;10.398;2023-06-04T01:29:47;1.60;;;1.50;;
13230;SDS011;6681;53.254;10.398;2023-06-04T01:32:15;1.13;;;1.03;;
13230;SDS011;6681;53.254;10.398;2023-06-04T01:34:44;2.30;;;1.43;;
13230;SDS011;6681;53.254;10.398;2023-06-04T01:37:11;2.17;;;1.13;;
13230;SDS011;6681;53.254;10.398;2023-06-04T01:39:37;0.90;;;0.90;;
13230;SDS011;6681;53.254;10.398;2023-06-04T01:42:03;1.10;;;1.00;;
13230;SDS011;6681;53.254;10.398;2023-06-04T01:44:29;1.70;;;1.43;;
13230;SDS011;6681;53.254;10.398;2023-06-04T01:46:54;1.23;;;1.13;;
13230;SDS011;6681;53.254;10.398;2023-06-04T01:49:20;1.17;;;1.07;;
13230;SDS011;6681;53.254;10.398;2023-06-04T01:51:46;4.20;;;1.10;;
13230;SDS011;6681;53.254;10.398;2023-06-04T01:54:11;2.20;;;1.10;;
13230;SDS011;6681;53.254;10.398;2023-06-04T01:56:37;1.37;;;1.00;;
13230;SDS011;6681;53.254;10.398;2023-06-04T01:59:02;2.00;;;0.90;;
13230;SDS011;6681;53.254;10.398;2023-06-04T02:01:29;1.37;;;0.90;;
13230;SDS011;6681;53.254;10.398;2023-06-04T02:03:54;4.63;;;1.10;;
13230;SDS011;6681;53.254;10.398;2023-06-04T02:06:20;0.90;;;0.80;;
13230;SDS011;6681;53.254;10.398;2023-06-04T02:08:46;1.90;;;1.70;;
13230;SDS011;6681;53.254;10.398;2023-06-04T02:11:11;1.83;;;1.00;;
13230;SDS011;6681;53.254;10.398;2023-06-04T02:13:37;1.10;;;1.00;;
13230;SDS011;6681;53.254;10.398;2023-06-04T02:16:03;0.97;;;0.97;;
13230;SDS011;6681;53.254;10.398;2023-06-04T02:18:30;2.07;;;1.00;;
13230;SDS011;6681;53.254;10.398;2023-06-04T02:20:56;0.93;;;0.93;;
13230;SDS011;6681;53.254;10.398;2023-06-04T02:23:23;1.50;;;1.40;;
13230;SDS011;6681;53.254;10.398;2023-06-04T02:25:48;1.07;;;0.87;;
13230;SDS011;6681;53.254;10.398;2023-06-04T02:28:14;1.00;;;1.00;;
13230;SDS011;6681;53.254;10.398;2023-06-04T02:30:41;0.93;;;0.90;;
13230;SDS011;6681;53.254;10.398;2023-06-04T02:33:07;1.43;;;1.30;;
13230;SDS011;6681;53.254;10.398;2023-06-04T02:35:34;0.80;;;0.80;;
13230;SDS011;6681;53.254;10.398;2023-06-04T02:38:01;1.37;;;1.27;;
13230;SDS011;6681;53.254;10.398;2023-06-04T02:40:27;1.53;;;1.00;;
13230;SDS011;6681;53.254;10.398;2023-06-04T02:42:53;1.80;;;1.20;;
13230;SDS011;6681;53.254;10.398;2023-06-04T02:45:20;0.90;;;0.90;;
13230;SDS011;6681;53.254;10.398;2023-06-04T02:47:45;1.20;;;1.10;;
13230;SDS011;6681;53.254;10.398;2023-06-04T02:50:12;0.73;;;0.73;;
13230;SDS011;6681;53.254;10.398;2023-06-04T02:52:39;1.23;;;1.03;;
13230;SDS011;6681;53.254;10.398;2023-06-04T02:55:05;1.30;;;1.20;;
13230;SDS011;6681;53.254;10.398;2023-06-04T02:57:32;1.53;;;1.10;;
13230;SDS011;6681;53.254;10.398;2023-06-04T03:00:00;1.63;;;1.50;;
13230;SDS011;6681;53.254;10.398;2023-06-04T03:02:33;1.50;;;1.00;;
13230;SDS011;6681;53.254;10.398;2023-06-04T03:04:58;3.43;;;2.30;;
13230;SDS011;6681;53.254;10.398;2023-06-04T03:07:24;2.40;;;1.75;;
13230;SDS011;6681;53.254;10.398;2023-06-04T03:09:50;1.37;;;0.87;;
13230;SDS011;6681;53.254;10.398;2023-06-04T03:12:15;1.80;;;1.30;;
13230;SDS011;6681;53.254;10.398;2023-06-04T03:14:41;1.20;;;1.10;;
13230;SDS011;6681;53.254;10.398;2023-06-04T03:17:07;1.13;;;1.03;;
13230;SDS011;6681;53.254;10.398;2023-06-04T03:19:38;1.23;;;1.23;;
13230;SDS011;6681;53.254;10.398;2023-06-04T03:22:06;1.50;;;0.90;;
13230;SDS011;6681;53.254;10.398;2023-06-04T03:24:37;1.23;;;1.13;;
13230;SDS011;6681;53.254;10.398;2023-06-04T03:27:04;1.60;;;1.07;;
13230;SDS011;6681;53.254;10.398;2023-06-04T03:29:31;2.17;;;1.73;;
13230;SDS011;6681;53.254;10.398;2023-06-04T03:31:57;1.33;;;0.93;;
13230;SDS011;6681;53.254;10.398;2023-06-04T03:34:23;2.57;;;1.43;;
13230;SDS011;6681;53.254;10.398;2023-06-04T03:36:50;1.47;;;1.30;;
13230;SDS011;6681;53.254;10.398;2023-06-04T03:39:19;3.60;;;1.30;;
13230;SDS011;6681;53.254;10.398;2023-06-04T03:41:45;1.40;;;1.10;;
13230;SDS011;6681;53.254;10.398;2023-06-04T03:44:17;2.80;;;1.23;;
13230;SDS011;6681;53.254;10.398;2023-06-04T03:46:43;1.33;;;1.23;;
13230;SDS011;6681;53.254;10.398;2023-06-04T03:49:10;1.43;;;1.27;;
13230;SDS011;6681;53.254;10.398;2023-06-04T03:51:37;1.93;;;1.60;;
13230;SDS011;6681;53.254;10.398;2023-06-04T03:54:03;2.53;;;1.10;;
13230;SDS011;6681;53.254;10.398;2023-06-04T03:56:29;1.27;;;1.17;;
13230;SDS011;6681;53.254;10.398;2023-06-04T03:58:55;1.77;;;1.10;;
13230;SDS011;6681;53.254;10.398;2023-06-04T04:01:21;1.60;;;1.50;;
13230;SDS011;6681;53.254;10.398;2023-06-04T04:03:48;3.50;;;1.57;;
13230;SDS011;6681;53.254;10.398;2023-06-04T04:06:16;1.53;;;1.37;;
13230;SDS011;6681;53.254;10.398;2023-06-04T04:08:42;2.77;;;2.20;;
13230;SDS011;6681;53.254;10.398;2023-06-04T04:11:09;1.80;;;1.57;;
13230;SDS011;6681;53.254;10.398;2023-06-04T04:13:35;1.83;;;1.70;;
13230;SDS011;6681;53.254;10.398;2023-06-04T04:16:01;3.10;;;2.53;;
13230;SDS011;6681;53.254;10.398;2023-06-04T04:18:27;3.00;;;2.27;;
13230;SDS011;6681;53.254;10.398;2023-06-04T04:20:52;3.30;;;2.00;;
13230;SDS011;6681;53.254;10.398;2023-06-04T04:23:18;4.10;;;3.13;;
13230;SDS011;6681;53.254;10.398;2023-06-04T04:25:45;3.97;;;2.30;;
13230;SDS011;6681;53.254;10.398;2023-06-04T04:28:10;2.87;;;2.50;;
13230;SDS011;6681;53.254;10.398;2023-06-04T04:30:36;3.70;;;2.90;;
13230;SDS011;6681;53.254;10.398;2023-06-04T04:33:02;4.63;;;4.20;;
13230;SDS011;6681;53.254;10.398;2023-06-04T04:35:30;4.33;;;3.13;;
13230;SDS011;6681;53.254;10.398;2023-06-04T04:37:57;3.50;;;3.23;;
13230;SDS011;6681;53.254;10.398;2023-06-04T04:40:24;3.70;;;2.97;;
13230;SDS011;6681;53.254;10.398;2023-06-04T04:42:49;4.17;;;2.97;;
13230;SDS011;6681;53.254;10.398;2023-06-04T04:45:15;3.00;;;2.70;;
13230;SDS011;6681;53.254;10.398;2023-06-04T04:47:42;2.67;;;2.47;;
13230;SDS011;6681;53.254;10.398;2023-06-04T04:50:08;3.50;;;2.13;;
13230;SDS011;6681;53.254;10.398;2023-06-04T04:52:34;2.30;;;1.80;;
13230;SDS011;6681;53.254;10.398;2023-06-04T04:55:00;2.23;;;1.73;;
13230;SDS011;6681;53.254;10.398;2023-06-04T04:57:25;2.70;;;1.63;;
13230;SDS011;6681;53.254;10.398;2023-06-04T04:59:51;2.53;;;1.53;;
13230;SDS011;6681;53.254;10.398;2023-06-04T05:02:17;2.33;;;1.57;;
13230;SDS011;6681;53.254;10.398;2023-06-04T05:04:42;2.13;;;1.70;;
13230;SDS011;6681;53.254;10.398;2023-06-04T05:07:08;5.07;;;1.50;;
13230;SDS011;6681;53.254;10.398;2023-06-04T05:09:34;2.17;;;1.97;;
13230;SDS011;6681;53.254;10.398;2023-06-04T05:12:00;2.80;;;1.67;;
13230;SDS011;6681;53.254;10.398;2023-06-04T05:14:26;1.77;;;1.67;;
13230;SDS011;6681;53.254;10.398;2023-06-04T05:16:53;1.67;;;1.40;;
13230;SDS011;6681;53.254;10.398;2023-06-04T05:19:21;2.67;;;2.03;;
13230;SDS011;6681;53.254;10.398;2023-06-04T05:21:48;2.00;;;1.10;;
13230;SDS011;6681;53.254;10.398;2023-06-04T05:24:14;2.60;;;0.80;;
13230;SDS011;6681;53.254;10.398;2023-06-04T05:26:40;3.00;;;0.97;;
13230;SDS011;6681;53.254;10.398;2023-06-04T05:29:05;1.47;;;0.90;;
13230;SDS011;6681;53.254;10.398;2023-06-04T05:31:32;2.10;;;1.03;;
13230;SDS011;6681;53.254;10.398;2023-06-04T05:34:00;2.47;;;0.70;;
13230;SDS011;6681;53.254;10.398;2023-06-04T05:36:31;1.37;;;0.80;;
13230;SDS011;6681;53.254;10.398;2023-06-04T05:38:57;2.97;;;1.30;;
13230;SDS011;6681;53.254;10.398;2023-06-04T05:41:26;3.27;;;1.50;;
13230;SDS011;6681;53.254;10.398;2023-06-04T05:43:52;4.77;;;2.40;;
13230;SDS011;6681;53.254;10.398;2023-06-04T05:46:18;1.80;;;1.20;;
13230;SDS011;6681;53.254;10.398;2023-06-04T05:48:44;0.90;;;0.80;;
13230;SDS011;6681;53.254;10.398;2023-06-04T05:51:10;1.67;;;1.47;;
13230;SDS011;6681;53.254;10.398;2023-06-04T05:53:37;0.97;;;0.87;;
13230;SDS011;6681;53.254;10.398;2023-06-04T05:56:03;1.27;;;0.67;;
13230;SDS011;6681;53.254;10.398;2023-06-04T05:58:29;1.17;;;0.93;;
13230;SDS011;6681;53.254;10.398;2023-06-04T06:00:54;2.67;;;0.77;;
13230;SDS011;6681;53.254;10.398;2023-06-04T06:03:20;1.00;;;0.90;;
13230;SDS011;6681;53.254;10.398;2023-06-04T06:05:46;1.00;;;0.50;;
13230;SDS011;6681;53.254;10.398;2023-06-04T06:08:13;0.80;;;0.70;;
13230;SDS011;6681;53.254;10.398;2023-06-04T06:10:39;1.07;;;0.90;;
13230;SDS011;6681;53.254;10.398;2023-06-04T06:13:04;0.83;;;0.80;;
13230;SDS011;6681;53.254;10.398;2023-06-04T06:15:30;1.03;;;0.60;;
13230;SDS011;6681;53.254;10.398;2023-06-04T06:17:56;1.10;;;1.00;;
13230;SDS011;6681;53.254;10.398;2023-06-04T06:20:21;1.67;;;0.77;;
13230;SDS011;6681;53.254;10.398;2023-06-04T06:22:47;1.17;;;0.67;;
13230;SDS011;6681;53.254;10.398;2023-06-04T06:25:13;1.53;;;1.43;;
13230;SDS011;6681;53.254;10.398;2023-06-04T06:27:40;0.50;;;0.50;;
13230;SDS011;6681;53.254;10.398;2023-06-04T06:30:07;1.20;;;1.10;;
13230;SDS011;6681;53.254;10.398;2023-06-04T06:32:33;0.97;;;0.97;;
13230;SDS011;6681;53.254;10.398;2023-06-04T06:35:00;0.90;;;0.90;;
13230;SDS011;6681;53.254;10.398;2023-06-04T06:37:25;2.60;;;1.00;;
13230;SDS011;6681;53.254;10.398;2023-06-04T06:39:51;1.57;;;0.60;;
13230;SDS011;6681;53.254;10.398;2023-06-04T06:42:17;0.77;;;0.77;;
13230;SDS011;6681;53.254;10.398;2023-06-04T06:44:46;0.77;;;0.63;;
13230;SDS011;6681;53.254;10.398;2023-06-04T06:47:12;0.80;;;0.60;;
13230;SDS011;6681;53.254;10.398;2023-06-04T06:49:41;2.83;;;0.73;;
13230;SDS011;6681;53.254;10.398;2023-06-04T06:52:07;1.50;;;0.93;;
13230;SDS011;6681;53.254;10.398;2023-06-04T06:54:33;1.60;;;0.60;;
13230;SDS011;6681;53.254;10.398;2023-06-04T06:56:58;1.30;;;0.80;;
13230;SDS011;6681;53.254;10.398;2023-06-04T06:59:24;2.73;;;0.87;;
13230;SDS011;6681;53.254;10.398;2023-06-04T07:01:50;1.10;;;0.70;;
13230;SDS011;6681;53.254;10.398;2023-06-04T07:04:16;0.67;;;0.60;;
13230;SDS011;6681;53.254;10.398;2023-06-04T07:06:42;1.53;;;1.20;;
13230;SDS011;6681;53.254;10.398;2023-06-04T07:09:08;0.70;;;0.70;;
13230;SDS011;6681;53.254;10.398;2023-06-04T07:11:34;1.43;;;0.80;;
13230;SDS011;6681;53.254;10.398;2023-06-04T07:14:00;1.30;;;0.57;;
13230;SDS011;6681;53.254;10.398;2023-06-04T07:16:29;1.20;;;0.73;;
13230;SDS011;6681;53.254;10.398;2023-06-04T07:18:54;0.60;;;0.60;;
13230;SDS011;6681;53.254;10.398;2023-06-04T07:21:20;2.17;;;1.20;;
13230;SDS011;6681;53.254;10.398;2023-06-04T07:23:48;1.33;;;0.97;;
13230;SDS011;6681;53.254;10.398;2023-06-04T07:26:16;0.70;;;0.70;;
13230;SDS011;6681;53.254;10.398;2023-06-04T07:28:42;0.90;;;0.53;;
13230;SDS011;6681;53.254;10.398;2023-06-04T07:31:08;0.83;;;0.50;;
13230;SDS011;6681;53.254;10.398;2023-06-04T07:33:33;3.10;;;0.70;;
13230;SDS011;6681;53.254;10.398;2023-06-04T07:35:59;2.10;;;1.27;;
13230;SDS011;6681;53.254;10.398;2023-06-04T07:38:25;2.20;;;0.60;;
13230;SDS011;6681;53.254;10.398;2023-06-04T07:40:51;1.60;;;0.57;;
13230;SDS011;6681;53.254;10.398;2023-06-04T07:43:16;0.40;;;0.40;;
13230;SDS011;6681;53.254;10.398;2023-06-04T07:45:42;1.17;;;0.80;;
13230;SDS011;6681;53.254;10.398;2023-06-04T07:48:11;0.63;;;0.63;;
13230;SDS011;6681;53.254;10.398;2023-06-04T07:50:37;1.27;;;0.60;;
13230;SDS011;6681;53.254;10.398;2023-06-04T07:53:03;1.17;;;0.63;;
13230;SDS011;6681;53.254;10.398;2023-06-04T07:55:28;0.50;;;0.50;;
13230;SDS011;6681;53.254;10.398;2023-06-04T07:57:54;2.30;;;0.50;;
13230;SDS011;6681;53.254;10.398;2023-06-04T08:00:20;0.60;;;0.60;;
13230;SDS011;6681;53.254;10.398;2023-06-04T08:02:45;1.03;;;0.60;;
13230;SDS011;6681;53.254;10.398;2023-06-04T08:05:13;0.40;;;0.40;;
13230;SDS011;6681;53.254;10.398;2023-06-04T08:07:40;0.47;;;0.47;;
13230;SDS011;6681;53.254;10.398;2023-06-04T08:10:06;0.63;;;0.50;;
13230;SDS011;6681;53.254;10.398;2023-06-04T08:12:32;1.37;;;0.80;;
13230;SDS011;6681;53.254;10.398;2023-06-04T08:14:57;1.47;;;0.63;;
13230;SDS011;6681;53.254;10.398;2023-06-04T08:17:23;0.83;;;0.60;;
13230;SDS011;6681;53.254;10.398;2023-06-04T08:19:49;0.87;;;0.77;;
13230;SDS011;6681;53.254;10.398;2023-06-04T08:22:15;0.50;;;0.50;;
13230;SDS011;6681;53.254;10.398;2023-06-04T08:24:40;2.63;;;0.63;;
13230;SDS011;6681;53.254;10.398;2023-06-04T08:27:06;2.27;;;1.03;;
13230;SDS011;6681;53.254;10.398;2023-06-04T08:29:33;2.07;;;0.90;;
13230;SDS011;6681;53.254;10.398;2023-06-04T08:32:00;1.77;;;1.23;;
13230;SDS011;6681;53.254;10.398;2023-06-04T08:34:26;1.37;;;0.73;;
13230;SDS011;6681;53.254;10.398;2023-06-04T08:36:52;2.37;;;0.80;;
13230;SDS011;6681;53.254;10.398;2023-06-04T08:39:18;1.40;;;0.57;;
13230;SDS011;6681;53.254;10.398;2023-06-04T08:41:44;1.23;;;0.63;;
13230;SDS011;6681;53.254;10.398;2023-06-04T08:44:14;1.07;;;0.57;;
13230;SDS011;6681;53.254;10.398;2023-06-04T08:46:42;0.30;;;0.30;;
13230;SDS011;6681;53.254;10.398;2023-06-04T08:49:09;1.67;;;0.97;;
13230;SDS011;6681;53.254;10.398;2023-06-04T08:51:37;2.50;;;0.97;;
13230;SDS011;6681;53.254;10.398;2023-06-04T08:54:04;1.57;;;0.50;;
13230;SDS011;6681;53.254;10.398;2023-06-04T08:56:31;0.93;;;0.40;;
13230;SDS011;6681;53.254;10.398;2023-06-04T08:58:59;2.40;;;1.10;;
13230;SDS011;6681;53.254;10.398;2023-06-04T09:01:26;0.80;;;0.63;;
13230;SDS011;6681;53.254;10.398;2023-06-04T09:03:52;1.63;;;0.50;;
13230;SDS011;6681;53.254;10.398;2023-06-04T09:06:18;1.00;;;0.50;;
13230;SDS011;6681;53.254;10.398;2023-06-04T09:08:43;3.03;;;1.00;;
13230;SDS011;6681;53.254;10.398;2023-06-04T09:11:11;1.80;;;0.50;;
13230;SDS011;6681;53.254;10.398;2023-06-04T09:13:39;2.73;;;0.70;;
13230;SDS011;6681;53.254;10.398;2023-06-04T09:16:08;1.50;;;0.43;;
13230;SDS011;6681;53.254;10.398;2023-06-04T09:18:33;3.30;;;0.40;;
13230;SDS011;6681;53.254;10.398;2023-06-04T09:23:37;1.03;;;0.87;;
13230;SDS011;6681;53.254;10.398;2023-06-04T09:26:12;2.07;;;0.60;;
13230;SDS011;6681;53.254;10.398;2023-06-04T09:28:41;0.50;;;0.43;;
13230;SDS011;6681;53.254;10.398;2023-06-04T09:31:09;0.70;;;0.53;;
13230;SDS011;6681;53.254;10.398;2023-06-04T09:33:44;1.70;;;0.50;;
13230;SDS011;6681;53.254;10.398;2023-06-04T09:36:11;5.07;;;0.40;;
13230;SDS011;6681;53.254;10.398;2023-06-04T09:38:37;2.10;;;0.70;;
13230;SDS011;6681;53.254;10.398;2023-06-04T09:41:03;0.40;;;0.37;;
13230;SDS011;6681;53.254;10.398;2023-06-04T09:43:31;1.87;;;1.27;;
13230;SDS011;6681;53.254;10.398;2023-06-04T09:46:17;2.17;;;0.53;;
13230;SDS011;6681;53.254;10.398;2023-06-04T09:48:43;1.57;;;1.47;;
13230;SDS011;6681;53.254;10.398;2023-06-04T09:51:13;3.80;;;0.60;;
13230;SDS011;6681;53.254;10.398;2023-06-04T09:53:40;1.60;;;1.47;;
13230;SDS011;6681;53.254;10.398;2023-06-04T09:56:06;1.67;;;0.50;;
13230;SDS011;6681;53.254;10.398;2023-06-04T09:58:37;1.27;;;0.80;;
13230;SDS011;6681;53.254;10.398;2023-06-04T10:01:04;0.60;;;0.53;;
13230;SDS011;6681;53.254;10.398;2023-06-04T10:03:35;1.13;;;0.80;;
13230;SDS011;6681;53.254;10.398;2023-06-04T10:06:02;1.20;;;0.53;;
13230;SDS011;6681;53.254;10.398;2023-06-04T10:08:29;0.70;;;0.70;;
13230;SDS011;6681;53.254;10.398;2023-06-04T10:10:56;1.03;;;0.90;;
13230;SDS011;6681;53.254;10.398;2023-06-04T10:13:27;2.17;;;0.60;;
13230;SDS011;6681;53.254;10.398;2023-06-04T10:15:58;5.00;;;0.90;;
13230;SDS011;6681;53.254;10.398;2023-06-04T10:18:27;2.90;;;1.27;;
13230;SDS011;6681;53.254;10.398;2023-06-04T10:20:56;4.37;;;0.77;;
13230;SDS011;6681;53.254;10.398;2023-06-04T10:23:23;1.17;;;0.63;;
13230;SDS011;6681;53.254;10.398;2023-06-04T10:25:50;0.83;;;0.60;;
13230;SDS011;6681;53.254;10.398;2023-06-04T10:28:17;1.07;;;0.40;;
13230;SDS011;6681;53.254;10.398;2023-06-04T10:30:48;0.93;;;0.90;;
13230;SDS011;6681;53.254;10.398;2023-06-04T10:33:15;2.40;;;1.00;;
13230;SDS011;6681;53.254;10.398;2023-06-04T10:35:45;1.07;;;0.90;;
13230;SDS011;6681;53.254;10.398;2023-06-04T10:38:12;0.93;;;0.80;;
13230;SDS011;6681;53.254;10.398;2023-06-04T10:40:39;0.73;;;0.40;;
13230;SDS011;6681;53.254;10.398;2023-06-04T10:43:08;3.90;;;1.30;;
13230;SDS011;6681;53.254;10.398;2023-06-04T10:45:36;1.03;;;0.70;;
13230;SDS011;6681;53.254;10.398;2023-06-04T10:48:02;1.70;;;0.50;;
13230;SDS011;6681;53.254;10.398;2023-06-04T10:50:29;0.50;;;0.47;;
13230;SDS011;6681;53.254;10.398;2023-06-04T10:52:56;1.73;;;0.50;;
13230;SDS011;6681;53.254;10.398;2023-06-04T10:55:27;1.80;;;1.13;;
13230;SDS011;6681;53.254;10.398;2023-06-04T10:57:58;2.20;;;1.07;;
13230;SDS011;6681;53.254;10.398;2023-06-04T11:00:35;1.17;;;0.50;;
13230;SDS011;6681;53.254;10.398;2023-06-04T11:03:11;1.07;;;0.90;;
13230;SDS011;6681;53.254;10.398;2023-06-04T11:05:38;0.70;;;0.50;;
13230;SDS011;6681;53.254;10.398;2023-06-04T11:08:08;3.20;;;1.37;;
13230;SDS011;6681;53.254;10.398;2023-06-04T11:10:40;2.13;;;0.70;;
13230;SDS011;6681;53.254;10.398;2023-06-04T11:13:08;0.63;;;0.40;;
13230;SDS011;6681;53.254;10.398;2023-06-04T11:15:37;2.60;;;0.60;;
13230;SDS011;6681;53.254;10.398;2023-06-04T11:18:07;0.57;;;0.50;;
13230;SDS011;6681;53.254;10.398;2023-06-04T11:20:32;1.57;;;0.70;;
13230;SDS011;6681;53.254;10.398;2023-06-04T11:22:59;1.07;;;0.60;;
13230;SDS011;6681;53.254;10.398;2023-06-04T11:25:28;1.30;;;0.90;;
13230;SDS011;6681;53.254;10.398;2023-06-04T11:27:55;4.63;;;0.97;;
13230;SDS011;6681;53.254;10.398;2023-06-04T11:30:22;1.43;;;0.87;;
13230;SDS011;6681;53.254;10.398;2023-06-04T11:32:48;1.07;;;0.73;;
13230;SDS011;6681;53.254;10.398;2023-06-04T11:35:15;0.70;;;0.60;;
13230;SDS011;6681;53.254;10.398;2023-06-04T11:37:41;1.73;;;1.30;;
13230;SDS011;6681;53.254;10.398;2023-06-04T11:40:16;1.40;;;1.30;;
13230;SDS011;6681;53.254;10.398;2023-06-04T11:42:43;3.67;;;0.60;;
13230;SDS011;6681;53.254;10.398;2023-06-04T11:45:10;1.80;;;0.80;;
13230;SDS011;6681;53.254;10.398;2023-06-04T11:47:37;0.87;;;0.50;;
13230;SDS011;6681;53.254;10.398;2023-06-04T11:50:03;1.47;;;0.80;;
13230;SDS011;6681;53.254;10.398;2023-06-04T11:52:29;2.20;;;0.50;;
13230;SDS011;6681;53.254;10.398;2023-06-04T11:54:55;1.90;;;0.60;;
13230;SDS011;6681;53.254;10.398;2023-06-04T11:57:21;1.47;;;0.80;;
13230;SDS011;6681;53.254;10.398;2023-06-04T11:59:47;0.60;;;0.60;;
13230;SDS011;6681;53.254;10.398;2023-06-04T12:02:13;5.17;;;0.70;;
13230;SDS011;6681;53.254;10.398;2023-06-04T12:04:39;3.13;;;0.53;;
13230;SDS011;6681;53.254;10.398;2023-06-04T12:07:04;0.63;;;0.60;;
13230;SDS011;6681;53.254;10.398;2023-06-04T12:09:31;1.17;;;1.00;;
13230;SDS011;6681;53.254;10.398;2023-06-04T12:12:03;0.97;;;0.77;;
13230;SDS011;6681;53.254;10.398;2023-06-04T12:14:30;3.60;;;0.60;;
13230;SDS011;6681;53.254;10.398;2023-06-04T12:19:25;0.57;;;0.57;;
13230;SDS011;6681;53.254;10.398;2023-06-04T12:22:04;0.70;;;0.70;;
13230;SDS011;6681;53.254;10.398;2023-06-04T12:24:34;1.90;;;0.43;;
13230;SDS011;6681;53.254;10.398;2023-06-04T12:27:11;2.63;;;0.63;;
13230;SDS011;6681;53.254;10.398;2023-06-04T12:29:37;3.47;;;0.60;;
13230;SDS011;6681;53.254;10.398;2023-06-04T12:32:03;1.93;;;1.00;;
13230;SDS011;6681;53.254;10.398;2023-06-04T12:34:33;3.50;;;0.60;;
13230;SDS011;6681;53.254;10.398;2023-06-04T12:36:59;2.73;;;0.93;;
13230;SDS011;6681;53.254;10.398;2023-06-04T12:39:25;2.70;;;0.93;;
13230;SDS011;6681;53.254;10.398;2023-06-04T12:41:50;2.87;;;0.80;;
13230;SDS011;6681;53.254;10.398;2023-06-04T12:44:16;0.80;;;0.80;;
13230;SDS011;6681;53.254;10.398;2023-06-04T12:46:42;2.97;;;1.57;;
13230;SDS011;6681;53.254;10.398;2023-06-04T12:49:07;1.03;;;0.73;;
13230;SDS011;6681;53.254;10.398;2023-06-04T12:51:33;2.33;;;0.90;;
13230;SDS011;6681;53.254;10.398;2023-06-04T12:53:58;1.43;;;0.70;;
13230;SDS011;6681;53.254;10.398;2023-06-04T12:56:24;2.10;;;1.43;;
13230;SDS011;6681;53.254;10.398;2023-06-04T12:58:51;0.73;;;0.70;;
13230;SDS011;6681;53.254;10.398;2023-06-04T13:01:17;2.77;;;0.50;;
13230;SDS011;6681;53.254;10.398;2023-06-04T13:03:42;3.40;;;0.80;;
13230;SDS011;6681;53.254;10.398;2023-06-04T13:06:08;0.60;;;0.60;;
13230;SDS011;6681;53.254;10.398;2023-06-04T13:08:34;1.50;;;0.50;;
13230;SDS011;6681;53.254;10.398;2023-06-04T13:11:01;3.67;;;0.93;;
13230;SDS011;6681;53.254;10.398;2023-06-04T13:13:27;1.53;;;0.60;;
13230;SDS011;6681;53.254;10.398;2023-06-04T13:15:52;2.28;;;0.70;;
13230;SDS011;6681;53.254;10.398;2023-06-04T13:18:18;0.98;;;0.60;;
13230;SDS011;6681;53.254;10.398;2023-06-04T13:20:43;0.77;;;0.60;;
13230;SDS011;6681;53.254;10.398;2023-06-04T13:23:09;1.80;;;0.80;;
13230;SDS011;6681;53.254;10.398;2023-06-04T13:25:37;3.83;;;1.63;;
13230;SDS011;6681;53.254;10.398;2023-06-04T13:28:03;4.03;;;0.60;;
13230;SDS011;6681;53.254;10.398;2023-06-04T13:30:29;0.60;;;0.50;;
13230;SDS011;6681;53.254;10.398;2023-06-04T13:32:55;2.33;;;0.93;;
13230;SDS011;6681;53.254;10.398;2023-06-04T13:35:23;1.02;;;0.40;;
13230;SDS011;6681;53.254;10.398;2023-06-04T13:37:49;2.63;;;1.00;;
13230;SDS011;6681;53.254;10.398;2023-06-04T13:40:15;2.90;;;0.70;;
13230;SDS011;6681;53.254;10.398;2023-06-04T13:42:41;1.50;;;0.57;;
13230;SDS011;6681;53.254;10.398;2023-06-04T13:45:08;1.97;;;1.40;;
13230;SDS011;6681;53.254;10.398;2023-06-04T13:47:34;2.27;;;0.90;;
13230;SDS011;6681;53.254;10.398;2023-06-04T13:49:59;2.07;;;1.47;;
13230;SDS011;6681;53.254;10.398;2023-06-04T13:52:25;0.80;;;0.47;;
13230;SDS011;6681;53.254;10.398;2023-06-04T13:54:53;3.33;;;1.37;;
13230;SDS011;6681;53.254;10.398;2023-06-04T13:57:19;1.70;;;1.08;;
13230;SDS011;6681;53.254;10.398;2023-06-04T13:59:45;3.07;;;0.80;;
13230;SDS011;6681;53.254;10.398;2023-06-04T14:02:11;2.13;;;1.33;;
13230;SDS011;6681;53.254;10.398;2023-06-04T14:04:36;1.43;;;0.60;;
13230;SDS011;6681;53.254;10.398;2023-06-04T14:07:02;0.90;;;0.63;;
13230;SDS011;6681;53.254;10.398;2023-06-04T14:09:28;1.33;;;0.63;;
13230;SDS011;6681;53.254;10.398;2023-06-04T14:11:54;1.40;;;0.95;;
13230;SDS011;6681;53.254;10.398;2023-06-04T14:14:20;1.67;;;1.00;;
13230;SDS011;6681;53.254;10.398;2023-06-04T14:16:46;1.08;;;0.88;;
13230;SDS011;6681;53.254;10.398;2023-06-04T14:19:12;0.97;;;0.90;;
13230;SDS011;6681;53.254;10.398;2023-06-04T14:21:39;2.13;;;1.07;;
13230;SDS011;6681;53.254;10.398;2023-06-04T14:24:06;2.93;;;1.67;;
13230;SDS011;6681;53.254;10.398;2023-06-04T14:26:31;3.33;;;1.87;;
13230;SDS011;6681;53.254;10.398;2023-06-04T14:28:58;4.07;;;0.70;;
13230;SDS011;6681;53.254;10.398;2023-06-04T14:31:24;1.37;;;1.17;;
13230;SDS011;6681;53.254;10.398;2023-06-04T14:33:50;11.90;;;1.87;;
13230;SDS011;6681;53.254;10.398;2023-06-04T14:36:15;2.92;;;0.80;;
13230;SDS011;6681;53.254;10.398;2023-06-04T14:38:41;3.60;;;1.30;;
13230;SDS011;6681;53.254;10.398;2023-06-04T14:41:07;1.97;;;1.20;;
13230;SDS011;6681;53.254;10.398;2023-06-04T14:43:33;1.40;;;0.60;;
13230;SDS011;6681;53.254;10.398;2023-06-04T14:45:58;2.13;;;1.07;;
13230;SDS011;6681;53.254;10.398;2023-06-04T14:48:24;1.53;;;0.73;;
13230;SDS011;6681;53.254;10.398;2023-06-04T14:50:50;2.07;;;0.90;;
13230;SDS011;6681;53.254;10.398;2023-06-04T14:53:18;0.88;;;0.88;;